Accueil
METAR-TAF:

METAR-TAF

Aéroports :

Aéroport de Kangiqsualujjuaq

Kangiqsualujjuaq, Québec, Canada

latitude: 58-43N, longitude: 065-59W, altitude: 60 m

Observation

Le bulletin a été fait il y a 48 minutes, à 12:00 UTC
Vent 2 kt de est
Température -14°C
Humidité 60%
Pression 1026 hPa
Visibilité: 24.1 km
Quelques nuages à une hauteur de 17000 ft

METAR: CYLU 041200Z 10002KT 15SM FEW170 M14/M20 A3031 RMK AC1 AC TR LAST OBS/NEXT 051200UTC SLP272

Heure: 08:48 (12:48 UTC)


TAF: absent

Observations et prévisions météorologiques de plus de 4000 aéroports (messages METAR et TAF).

Les stations disponibles sont représentées par des disques jaunes et rouges sur la carte.

Passer la souris dessus pour voir le nom de la station.

Cliquer dessus pour voir les observations et prévisions météorologiques.

Pour changer de carte: cliquez sur les boutons verts avec une croix noire pour zoomer, sur le bouton vert avec un tiret pour effectuer un zoom arrière, ou sur les flèches vertes pour les cartes adjacentes.


METAR-TAF: